Time;durP1;ratioP1;P1;durP2;ratioP2;P2;SDS_P1;SDS_P2;PMS_P1;PMS_P2;Temp;Humidity;BMP_temperature;BMP_pressure;BME280_temperature;BME280_humidity;BME280_pressure;Samples;Min_cycle;Max_cycle;Signal;HPM_P1;HPM_P2
2024/01/06 00:02:29;;;;;;;;;;;;;;;9.23;60.63;99545.34;5416828;32;33845;-72
2024/01/06 00:05:32;;;;;;;;;;;;;;;8.77;61.50;99561.47;5424186;32;33640;-64
2024/01/06 00:08:34;;;;;;;;;;;;;;;8.22;63.45;99554.22;5414767;32;34053;-69
2024/01/06 00:11:36;;;;;;;;;;;;;;;9.03;61.53;99548.03;5422763;32;34426;-64
2024/01/06 00:14:42;;;;;;;;;;;;;;;9.47;60.06;99543.34;5415227;32;33933;-71
2024/01/06 00:17:44;;;;;;;;;;;;;;;9.20;59.69;99545.47;5415031;32;34737;-63
2024/01/06 00:20:46;;;;;;;;;;;;;;;8.64;62.58;99541.06;5412403;32;34034;-64
2024/01/06 00:23:48;;;;;;;;;;;;;;;8.93;61.72;99531.88;5421602;32;33990;-72
2024/01/06 00:26:50;;;;;;;;;;;;;;;8.75;60.56;99534.47;5414350;32;34021;-64
2024/01/06 00:29:52;;;;;;;;;;;;;;;8.60;62.66;99526.41;5417359;32;33694;-69
2024/01/06 00:32:54;;;;;;;;;;;;;;;8.36;63.07;99532.72;5419550;32;33691;-69
2024/01/06 00:35:57;;;;;;;;;;;;;;;8.53;62.74;99543.31;5386367;32;34475;-63
2024/01/06 00:38:59;;;;;;;;;;;;;;;8.63;62.09;99533.25;5414292;32;33733;-64
2024/01/06 00:42:01;;;;;;;;;;;;;;;8.72;61.78;99530.25;5421542;32;33903;-70
2024/01/06 00:45:04;;;;;;;;;;;;;;;8.85;61.00;99513.03;5419052;32;34221;-69
2024/01/06 00:48:06;;;;;;;;;;;;;;;8.24;63.01;99528.81;5426640;32;33787;-64
2024/01/06 00:51:08;;;;;;;;;;;;;;;8.88;61.43;99515.50;5421272;32;34404;-64
2024/01/06 00:54:11;;;;;;;;;;;;;;;8.70;62.03;99524.22;5421901;32;33783;-63
2024/01/06 00:57:13;;;;;;;;;;;;;;;8.55;62.57;99517.03;5417450;32;33432;-65
2024/01/06 01:00:15;;;;;;;;;;;;;;;8.76;61.87;99508.25;5418147;32;34099;-70
2024/01/06 01:03:17;;;;;;;;;;;;;;;8.89;60.84;99511.16;5412913;32;33298;-70
2024/01/06 01:06:20;;;;;;;;;;;;;;;8.14;62.94;99517.91;5415681;32;34392;-71
2024/01/06 01:09:22;;;;;;;;;;;;;;;8.19;63.91;99512.47;5419164;32;34009;-70
2024/01/06 01:12:24;;;;;;;;;;;;;;;9.08;60.64;99512.00;5418423;32;34421;-70
2024/01/06 01:15:26;;;;;;;;;;;;;;;8.68;61.52;99513.78;5421872;32;33354;-70
2024/01/06 01:18:28;;;;;;;;;;;;;;;7.50;66.05;99510.12;5416285;32;34661;-65
2024/01/06 01:21:31;;;;;;;;;;;;;;;7.68;65.52;99500.69;5406275;32;33321;-65
2024/01/06 01:24:33;;;;;;;;;;;;;;;8.01;64.86;99498.41;5423326;32;33267;-63
2024/01/06 01:27:36;;;;;;;;;;;;;;;8.84;61.53;99484.28;5418402;32;33815;-70
2024/01/06 01:30:38;;;;;;;;;;;;;;;7.50;66.40;99504.87;5420780;32;33760;-64
2024/01/06 01:33:40;;;;;;;;;;;;;;;8.11;64.71;99502.34;5417778;32;33601;-64
2024/01/06 01:36:42;;;;;;;;;;;;;;;8.36;63.91;99496.06;5418115;32;33957;-70
2024/01/06 01:39:45;;;;;;;;;;;;;;;8.57;63.95;99505.59;5391947;32;33204;-70
2024/01/06 01:42:47;;;;;;;;;;;;;;;9.14;61.05;99501.19;5414929;32;34240;-70
2024/01/06 01:45:55;;;;;;;;;;;;;;;7.78;65.81;99499.38;5423886;32;34070;-63
2024/01/06 01:48:58;;;;;;;;;;;;;;;8.46;64.42;99499.13;5421354;32;33931;-69
2024/01/06 01:52:00;;;;;;;;;;;;;;;7.66;66.54;99488.56;5426048;32;34223;-63
2024/01/06 01:55:03;;;;;;;;;;;;;;;8.03;65.04;99483.47;5423770;32;33950;-63
2024/01/06 01:58:05;;;;;;;;;;;;;;;8.84;63.24;99479.06;5411116;32;33999;-69
2024/01/06 02:01:07;;;;;;;;;;;;;;;9.01;62.22;99463.38;5424438;32;33746;-63
2024/01/06 02:04:10;;;;;;;;;;;;;;;9.14;61.98;99468.88;5407180;32;33936;-63
2024/01/06 02:07:12;;;;;;;;;;;;;;;9.13;62.09;99462.78;5411895;32;33688;-72
2024/01/06 02:10:14;;;;;;;;;;;;;;;9.74;59.78;99465.06;5415259;32;33646;-69
2024/01/06 02:13:16;;;;;;;;;;;;;;;8.81;62.74;99463.47;5413136;32;33980;-63
2024/01/06 02:16:18;;;;;;;;;;;;;;;8.59;62.77;99453.97;5420479;32;33916;-70
2024/01/06 02:19:21;;;;;;;;;;;;;;;8.88;62.42;99467.50;5422564;32;33483;-70
2024/01/06 02:22:23;;;;;;;;;;;;;;;8.90;61.70;99455.19;5420093;32;33384;-69
2024/01/06 02:25:25;;;;;;;;;;;;;;;8.54;63.62;99463.81;5404849;32;34335;-71
2024/01/06 02:28:27;;;;;;;;;;;;;;;8.75;63.00;99448.03;5416571;32;34163;-70
2024/01/06 02:31:29;;;;;;;;;;;;;;;8.81;63.08;99452.97;5404845;32;33736;-69
2024/01/06 02:34:32;;;;;;;;;;;;;;;9.46;60.69;99449.81;5424175;32;33280;-63
2024/01/06 02:37:35;;;;;;;;;;;;;;;8.75;62.57;99453.25;5423229;32;34008;-63
2024/01/06 02:40:37;;;;;;;;;;;;;;;8.39;63.87;99460.13;5410427;32;33444;-70
2024/01/06 02:43:39;;;;;;;;;;;;;;;8.59;63.77;99455.75;5425432;32;33988;-64
2024/01/06 02:46:41;;;;;;;;;;;;;;;8.66;63.47;99441.44;5407850;32;33259;-69
2024/01/06 02:49:43;;;;;;;;;;;;;;;8.59;63.20;99438.25;5426588;32;33800;-64
2024/01/06 02:52:45;;;;;;;;;;;;;;;8.96;63.13;99436.56;5410075;32;33909;-70
2024/01/06 02:55:47;;;;;;;;;;;;;;;8.98;62.95;99421.59;5427418;32;33959;-63
2024/01/06 02:58:49;;;;;;;;;;;;;;;8.53;63.99;99424.59;5411395;32;34311;-64
2024/01/06 03:01:52;;;;;;;;;;;;;;;8.66;63.67;99425.72;5419558;32;33577;-72
2024/01/06 03:04:54;;;;;;;;;;;;;;;9.11;62.58;99427.94;5426779;32;33451;-64
2024/01/06 03:07:57;;;;;;;;;;;;;;;8.82;63.24;99418.00;5415480;32;33682;-69
2024/01/06 03:10:59;;;;;;;;;;;;;;;9.45;61.81;99410.56;5420321;32;33589;-70
2024/01/06 03:14:02;;;;;;;;;;;;;;;8.17;66.68;99421.84;5408985;32;33899;-64
2024/01/06 03:17:04;;;;;;;;;;;;;;;8.94;64.12;99406.94;5421661;32;33485;-70
2024/01/06 03:20:07;;;;;;;;;;;;;;;8.59;64.62;99404.22;5408139;32;33273;-71
2024/01/06 03:23:09;;;;;;;;;;;;;;;8.18;67.00;99402.59;5413402;32;33871;-70
2024/01/06 03:26:11;;;;;;;;;;;;;;;8.40;66.41;99387.66;5400804;32;33640;-69
2024/01/06 03:29:13;;;;;;;;;;;;;;;8.31;66.57;99393.28;5388632;32;33236;-64
2024/01/06 03:32:15;;;;;;;;;;;;;;;8.45;66.12;99385.69;5420775;32;33989;-63
2024/01/06 03:35:18;;;;;;;;;;;;;;;8.63;65.06;99383.94;5415136;32;33642;-64
2024/01/06 03:38:20;;;;;;;;;;;;;;;8.81;64.19;99383.09;5415122;32;33867;-70
2024/01/06 03:41:22;;;;;;;;;;;;;;;8.16;66.35;99394.81;5417187;32;33430;-69
2024/01/06 03:44:24;;;;;;;;;;;;;;;7.84;68.44;99398.84;5407106;32;33368;-69
2024/01/06 03:47:27;;;;;;;;;;;;;;;8.77;65.89;99393.81;5418338;32;33806;-64
2024/01/06 03:50:29;;;;;;;;;;;;;;;7.94;68.64;99407.16;5405387;32;34482;-69
2024/01/06 03:53:31;;;;;;;;;;;;;;;7.52;70.19;99406.31;5410980;32;33761;-70
2024/01/06 03:56:33;;;;;;;;;;;;;;;8.80;66.05;99412.00;5417907;32;34432;-63
2024/01/06 03:59:36;;;;;;;;;;;;;;;8.53;67.18;99403.66;5410844;32;33918;-70
2024/01/06 04:02:38;;;;;;;;;;;;;;;8.95;65.03;99406.00;5417953;32;33850;-70
2024/01/06 04:05:40;;;;;;;;;;;;;;;9.18;64.55;99420.63;5413472;32;33918;-64
2024/01/06 04:08:42;;;;;;;;;;;;;;;9.47;63.32;99425.31;5414936;32;33225;-65
2024/01/06 04:11:44;;;;;;;;;;;;;;;8.00;68.86;99440.91;5419242;32;33548;-70
2024/01/06 04:14:46;;;;;;;;;;;;;;;8.40;67.99;99435.63;5412004;32;33406;-63
2024/01/06 04:17:49;;;;;;;;;;;;;;;8.12;69.82;99438.63;5404033;32;33982;-70
2024/01/06 04:20:51;;;;;;;;;;;;;;;8.54;68.08;99411.44;5413274;32;33560;-65
2024/01/06 04:23:54;;;;;;;;;;;;;;;8.18;70.41;99427.03;5411646;32;34080;-64
2024/01/06 04:26:56;;;;;;;;;;;;;;;8.00;70.96;99418.22;5400136;32;33423;-69
2024/01/06 04:29:58;;;;;;;;;;;;;;;8.89;69.03;99427.28;5412329;32;33442;-63
2024/01/06 04:33:00;;;;;;;;;;;;;;;9.13;66.44;99433.97;5411442;32;33645;-70
2024/01/06 04:36:03;;;;;;;;;;;;;;;9.01;67.58;99436.31;5425127;32;33769;-69
2024/01/06 04:39:05;;;;;;;;;;;;;;;8.67;68.24;99427.44;5419600;32;33791;-70
2024/01/06 04:42:07;;;;;;;;;;;;;;;8.48;70.22;99432.66;5419208;32;33925;-63
2024/01/06 04:45:09;;;;;;;;;;;;;;;8.64;70.57;99422.34;5425147;32;33639;-70
2024/01/06 04:48:11;;;;;;;;;;;;;;;8.95;69.12;99424.34;5419432;32;33876;-64
2024/01/06 04:51:14;;;;;;;;;;;;;;;9.36;67.64;99411.03;5423950;32;33884;-65
2024/01/06 04:54:17;;;;;;;;;;;;;;;8.86;69.89;99409.94;5421293;32;33834;-64
2024/01/06 04:57:20;;;;;;;;;;;;;;;9.39;68.35;99418.72;5410472;32;33262;-64
2024/01/06 05:00:23;;;;;;;;;;;;;;;9.19;67.73;99412.69;5424080;32;33827;-64
2024/01/06 05:03:25;;;;;;;;;;;;;;;8.44;71.62;99404.94;5420593;32;34407;-71
2024/01/06 05:06:27;;;;;;;;;;;;;;;8.24;72.59;99407.56;5420905;32;34650;-63
2024/01/06 05:09:29;;;;;;;;;;;;;;;8.47;71.90;99409.16;5420447;32;33947;-63
2024/01/06 05:12:32;;;;;;;;;;;;;;;8.56;72.63;99409.59;5421930;32;33794;-64
2024/01/06 05:15:34;;;;;;;;;;;;;;;9.19;70.21;99403.97;5409253;32;33887;-66
2024/01/06 05:18:36;;;;;;;;;;;;;;;9.31;69.27;99397.28;5426603;32;34439;-63
2024/01/06 05:21:39;;;;;;;;;;;;;;;8.66;71.73;99405.63;5422383;32;33724;-70
2024/01/06 05:24:41;;;;;;;;;;;;;;;8.87;70.87;99398.50;5411749;32;33402;-71
2024/01/06 05:27:44;;;;;;;;;;;;;;;8.91;70.92;99394.84;5419223;32;34010;-69
2024/01/06 05:30:46;;;;;;;;;;;;;;;8.21;73.45;99397.22;5406419;32;33368;-69
2024/01/06 05:33:48;;;;;;;;;;;;;;;8.50;72.49;99399.41;5417168;32;34439;-71
2024/01/06 05:36:51;;;;;;;;;;;;;;;9.52;68.53;99398.81;5423920;32;33325;-64
2024/01/06 05:39:54;;;;;;;;;;;;;;;8.26;73.51;99409.19;5410539;32;33927;-64
2024/01/06 05:42:56;;;;;;;;;;;;;;;8.94;70.09;99406.94;5419132;32;33948;-63
2024/01/06 05:45:59;;;;;;;;;;;;;;;8.97;68.76;99401.56;5409608;32;33316;-63
2024/01/06 05:49:01;;;;;;;;;;;;;;;7.55;75.23;99423.66;5423930;32;34920;-69
2024/01/06 05:52:03;;;;;;;;;;;;;;;8.82;71.34;99420.63;5413035;32;33619;-64
2024/01/06 05:55:06;;;;;;;;;;;;;;;8.97;69.24;99419.91;5421476;32;33715;-63
2024/01/06 05:58:08;;;;;;;;;;;;;;;8.59;70.88;99430.41;5421286;32;34185;-64
2024/01/06 06:01:10;;;;;;;;;;;;;;;8.86;70.08;99433.50;5421160;32;34523;-64
2024/01/06 06:04:12;;;;;;;;;;;;;;;9.07;69.11;99428.16;5420586;32;33829;-71
2024/01/06 06:07:14;;;;;;;;;;;;;;;8.51;71.45;99437.78;5405004;32;33444;-64
2024/01/06 06:10:18;;;;;;;;;;;;;;;7.82;74.29;99437.31;5427059;32;34066;-63
2024/01/06 06:13:20;;;;;;;;;;;;;;;8.17;74.70;99440.16;5413555;32;33715;-69
2024/01/06 06:16:23;;;;;;;;;;;;;;;8.12;74.62;99433.38;5421697;32;33965;-64
2024/01/06 06:19:25;;;;;;;;;;;;;;;7.75;75.70;99433.28;5418632;32;33932;-62
2024/01/06 06:22:30;;;;;;;;;;;;;;;7.54;76.80;99441.12;5405886;32;34627;-71
2024/01/06 06:25:32;;;;;;;;;;;;;;;7.61;78.06;99431.25;5419268;32;34757;-63
2024/01/06 06:28:35;;;;;;;;;;;;;;;8.28;75.86;99428.28;5421494;32;34339;-70
2024/01/06 06:31:37;;;;;;;;;;;;;;;8.31;73.10;99441.25;5423646;32;34039;-64
2024/01/06 06:34:39;;;;;;;;;;;;;;;7.36;79.95;99441.88;5416160;32;33306;-64
2024/01/06 06:37:41;;;;;;;;;;;;;;;7.77;78.00;99444.50;5411411;32;33941;-70
2024/01/06 06:40:43;;;;;;;;;;;;;;;8.53;74.99;99441.16;5407785;32;33699;-63
2024/01/06 06:43:46;;;;;;;;;;;;;;;8.03;76.83;99457.31;5424763;32;33833;-64
2024/01/06 06:46:48;;;;;;;;;;;;;;;8.11;77.37;99439.53;5421433;32;34453;-70
2024/01/06 06:49:51;;;;;;;;;;;;;;;7.59;77.83;99444.34;5408421;32;33992;-70
2024/01/06 06:52:53;;;;;;;;;;;;;;;7.90;78.21;99421.28;5425855;32;34109;-64
2024/01/06 06:55:55;;;;;;;;;;;;;;;7.37;80.00;99416.56;5417107;32;34099;-68
2024/01/06 06:58:57;;;;;;;;;;;;;;;7.57;78.85;99417.44;5425500;32;33327;-63
2024/01/06 07:01:59;;;;;;;;;;;;;;;8.11;76.23;99423.84;5413870;32;33550;-69
2024/01/06 07:05:01;;;;;;;;;;;;;;;7.13;80.61;99431.47;5426054;32;33028;-64
2024/01/06 07:08:04;;;;;;;;;;;;;;;7.50;79.23;99441.28;5419313;32;34328;-69
2024/01/06 07:11:06;;;;;;;;;;;;;;;7.50;79.91;99426.44;5422834;32;33760;-70
2024/01/06 07:14:08;;;;;;;;;;;;;;;7.31;79.79;99436.81;5423100;32;33205;-64
2024/01/06 07:17:11;;;;;;;;;;;;;;;7.25;79.77;99436.22;5420322;32;33074;-65
2024/01/06 07:20:13;;;;;;;;;;;;;;;7.43;81.26;99427.63;5418481;32;34210;-66
2024/01/06 07:23:15;;;;;;;;;;;;;;;7.49;79.86;99427.38;5418728;32;33351;-69
2024/01/06 07:26:17;;;;;;;;;;;;;;;7.71;78.81;99426.47;5419234;32;33944;-63
2024/01/06 07:29:20;;;;;;;;;;;;;;;7.81;79.94;99419.94;5388978;32;33177;-64
2024/01/06 07:32:22;;;;;;;;;;;;;;;7.58;79.34;99418.28;5411695;32;34398;-63
2024/01/06 07:35:43;;;;;;;;;;;;;;;7.46;79.15;99414.41;5419849;32;34583;-63
2024/01/06 07:39:04;;;;;;;;;;;;;;;7.44;79.92;99418.00;5398098;32;33916;-69
2024/01/06 07:42:06;;;;;;;;;;;;;;;7.47;79.07;99431.81;5427068;32;33786;-66
2024/01/06 07:45:09;;;;;;;;;;;;;;;7.42;80.04;99433.78;5407124;32;33733;-71
2024/01/06 07:48:11;;;;;;;;;;;;;;;7.06;82.10;99423.03;5422282;32;33192;-65
2024/01/06 07:51:13;;;;;;;;;;;;;;;6.94;81.62;99416.53;5422875;32;34629;-64
2024/01/06 07:54:15;;;;;;;;;;;;;;;7.05;83.54;99418.72;5416277;32;33286;-69
2024/01/06 07:57:18;;;;;;;;;;;;;;;7.04;82.51;99423.09;5417465;32;34147;-63
2024/01/06 08:00:20;;;;;;;;;;;;;;;6.96;83.61;99414.72;5420080;32;34224;-69
2024/01/06 08:03:23;;;;;;;;;;;;;;;6.71;84.50;99422.66;5421495;32;33043;-70
2024/01/06 08:06:25;;;;;;;;;;;;;;;6.83;85.11;99416.13;5415038;32;34078;-70
2024/01/06 08:09:27;;;;;;;;;;;;;;;7.35;83.59;99410.56;5417063;32;34605;-63
2024/01/06 08:12:29;;;;;;;;;;;;;;;7.82;79.67;99424.25;5415699;32;33675;-63
2024/01/06 08:15:32;;;;;;;;;;;;;;;6.80;83.18;99434.50;5415170;32;33671;-64
2024/01/06 08:18:34;;;;;;;;;;;;;;;6.84;85.46;99428.28;5416145;32;34189;-69
2024/01/06 08:21:37;;;;;;;;;;;;;;;7.56;81.65;99430.56;5419359;32;33606;-70
2024/01/06 08:24:39;;;;;;;;;;;;;;;7.66;80.12;99436.25;5419618;32;33737;-64
2024/01/06 08:27:41;;;;;;;;;;;;;;;7.50;80.05;99436.91;5420862;32;33907;-64
2024/01/06 08:30:43;;;;;;;;;;;;;;;8.19;77.92;99440.97;5406223;32;33515;-63
2024/01/06 08:33:46;;;;;;;;;;;;;;;7.42;81.90;99436.37;5414291;32;34227;-64
2024/01/06 08:36:48;;;;;;;;;;;;;;;7.71;80.64;99435.16;5395383;32;33898;-71
2024/01/06 08:39:50;;;;;;;;;;;;;;;7.59;82.27;99439.13;5421660;32;35040;-69
2024/01/06 08:42:52;;;;;;;;;;;;;;;7.39;80.29;99439.09;5416485;32;34373;-69
2024/01/06 08:45:55;;;;;;;;;;;;;;;7.29;84.84;99441.25;5420780;32;34214;-63
2024/01/06 08:48:57;;;;;;;;;;;;;;;7.45;82.34;99441.47;5414493;32;33935;-70
2024/01/06 08:52:00;;;;;;;;;;;;;;;7.65;81.76;99440.62;5422668;32;34064;-69
2024/01/06 08:55:02;;;;;;;;;;;;;;;7.30;82.14;99449.94;5421100;32;33455;-63
2024/01/06 08:58:05;;;;;;;;;;;;;;;8.39;78.58;99448.81;5422228;32;34476;-65
2024/01/06 09:01:07;;;;;;;;;;;;;;;7.11;81.73;99444.63;5424349;32;33584;-65
2024/01/06 09:04:11;;;;;;;;;;;;;;;7.76;80.41;99448.03;5414171;32;33723;-70
2024/01/06 09:07:13;;;;;;;;;;;;;;;7.65;81.13;99445.03;5417639;32;33362;-65
2024/01/06 09:10:16;;;;;;;;;;;;;;;6.58;84.61;99444.94;5419500;32;34307;-70
2024/01/06 09:13:18;;;;;;;;;;;;;;;6.74;84.46;99445.19;5414879;32;33782;-64
2024/01/06 09:16:20;;;;;;;;;;;;;;;6.95;84.31;99443.50;5414412;32;34609;-63
2024/01/06 09:19:23;;;;;;;;;;;;;;;7.85;81.01;99430.16;5419696;32;33823;-64
2024/01/06 09:22:25;;;;;;;;;;;;;;;8.20;77.93;99416.47;5414484;32;34126;-64
2024/01/06 09:25:27;;;;;;;;;;;;;;;7.41;82.45;99426.00;5413983;32;33666;-65
2024/01/06 09:28:29;;;;;;;;;;;;;;;7.48;81.50;99422.22;5398003;32;33971;-63
2024/01/06 09:31:32;;;;;;;;;;;;;;;7.83;81.16;99416.31;5404131;32;34064;-63
2024/01/06 09:34:34;;;;;;;;;;;;;;;8.07;80.61;99411.78;5402292;32;33602;-63
2024/01/06 09:37:41;;;;;;;;;;;;;;;7.65;82.08;99418.88;5425962;32;34068;-71
2024/01/06 09:40:44;;;;;;;;;;;;;;;7.17;83.55;99412.16;5414765;32;34375;-70
2024/01/06 09:43:47;;;;;;;;;;;;;;;7.84;80.54;99409.31;5412147;32;33218;-70
2024/01/06 09:46:49;;;;;;;;;;;;;;;7.16;82.54;99410.47;5415876;32;33954;-70
2024/01/06 09:49:51;;;;;;;;;;;;;;;6.78;84.60;99415.44;5419155;32;33205;-70
2024/01/06 09:52:55;;;;;;;;;;;;;;;7.52;82.29;99406.31;5401366;32;34969;-63
2024/01/06 09:55:57;;;;;;;;;;;;;;;7.90;81.86;99406.44;5420743;32;34043;-65
2024/01/06 09:58:59;;;;;;;;;;;;;;;8.29;78.38;99409.06;5424194;32;33711;-71
2024/01/06 10:02:02;;;;;;;;;;;;;;;8.62;77.50;99403.22;5415589;32;33833;-70
2024/01/06 10:05:04;;;;;;;;;;;;;;;8.57;76.55;99405.22;5409446;32;34306;-70
2024/01/06 10:08:06;;;;;;;;;;;;;;;8.06;81.21;99415.31;5411325;32;33340;-65
2024/01/06 10:11:09;;;;;;;;;;;;;;;7.73;81.52;99415.03;5413697;32;34028;-71
2024/01/06 10:14:11;;;;;;;;;;;;;;;8.01;80.13;99421.69;5420509;32;34408;-70
2024/01/06 10:17:14;;;;;;;;;;;;;;;8.78;77.47;99408.59;5421523;32;33695;-63
2024/01/06 10:21:07;;;;;;;;;;;;;;;8.61;77.95;99415.47;5480222;31;899306;-70
2024/01/06 10:24:10;;;;;;;;;;;;;;;8.87;76.92;99416.84;5496009;32;34520;-71
2024/01/06 10:27:12;;;;;;;;;;;;;;;8.82;77.20;99416.25;5505141;32;34462;-62
2024/01/06 10:30:17;;;;;;;;;;;;;;;8.15;78.54;99416.69;5515175;31;34532;-64
2024/01/06 10:33:20;;;;;;;;;;;;;;;8.69;78.25;99402.00;5504335;32;34499;-69
2024/01/06 10:36:23;;;;;;;;;;;;;;;8.04;78.94;99401.44;5504605;32;34730;-71
2024/01/06 10:39:25;;;;;;;;;;;;;;;8.27;80.74;99389.94;5495166;31;34977;-70
2024/01/06 10:42:30;;;;;;;;;;;;;;;7.67;82.42;99386.53;5496861;32;35682;-71
2024/01/06 10:45:32;;;;;;;;;;;;;;;7.56;83.54;99389.59;5499226;32;34570;-63
2024/01/06 10:48:34;;;;;;;;;;;;;;;8.12;82.25;99380.19;5505880;32;34601;-69
2024/01/06 10:51:40;;;;;;;;;;;;;;;7.78;83.10;99376.41;5512096;32;34644;-69
2024/01/06 10:54:42;;;;;;;;;;;;;;;8.56;78.27;99367.69;5512308;32;34291;-63
2024/01/06 10:57:45;;;;;;;;;;;;;;;8.65;79.50;99374.28;5504896;32;34831;-69
2024/01/06 11:00:47;;;;;;;;;;;;;;;8.39;80.50;99371.09;5485393;32;35029;-63
2024/01/06 11:03:50;;;;;;;;;;;;;;;9.15;77.24;99358.72;5510238;32;35337;-65
2024/01/06 11:06:52;;;;;;;;;;;;;;;8.23;78.16;99363.97;5507928;32;34546;-64
2024/01/06 11:09:58;;;;;;;;;;;;;;;8.71;77.88;99344.31;5513372;32;35255;-69
2024/01/06 11:13:11;;;;;;;;;;;;;;;8.57;80.02;99340.59;5494726;32;34891;-70
2024/01/06 11:16:37;;;;;;;;;;;;;;;8.27;81.33;99342.84;5506428;32;35029;-64
2024/01/06 11:19:42;;;;;;;;;;;;;;;7.43;83.92;99330.03;5479982;32;34643;-71
2024/01/06 11:22:45;;;;;;;;;;;;;;;8.69;80.83;99326.03;5508120;32;35942;-65
2024/01/06 11:25:47;;;;;;;;;;;;;;;8.14;82.19;99308.53;5498677;32;34222;-70
2024/01/06 11:28:50;;;;;;;;;;;;;;;7.79;84.21;99319.72;5511086;32;34581;-64
2024/01/06 11:32:10;;;;;;;;;;;;;;;8.34;82.58;99299.72;5485751;32;34597;-65
2024/01/06 11:35:13;;;;;;;;;;;;;;;8.92;79.70;99298.72;5495137;32;34800;-71
2024/01/06 11:38:16;;;;;;;;;;;;;;;8.25;81.93;99304.56;5488763;32;35294;-70
2024/01/06 11:41:36;;;;;;;;;;;;;;;8.45;81.76;99291.41;5492807;32;34926;-64
2024/01/06 11:44:39;;;;;;;;;;;;;;;7.92;81.86;99284.28;5488584;32;34777;-64
2024/01/06 11:47:43;;;;;;;;;;;;;;;8.33;83.36;99271.88;5494116;32;34895;-70
2024/01/06 11:50:45;;;;;;;;;;;;;;;8.40;80.48;99273.28;5479926;32;34214;-67
2024/01/06 11:53:47;;;;;;;;;;;;;;;8.51;79.94;99274.56;5472843;32;34577;-70
2024/01/06 11:56:49;;;;;;;;;;;;;;;8.03;82.60;99279.38;5480626;32;34738;-71
2024/01/06 11:59:51;;;;;;;;;;;;;;;9.08;79.20;99262.09;5485399;32;35545;-63
2024/01/06 12:02:57;;;;;;;;;;;;;;;8.45;82.66;99261.75;5489616;32;34492;-69
2024/01/06 12:06:02;;;;;;;;;;;;;;;8.43;81.39;99267.06;5491177;32;34666;-65
2024/01/06 12:09:05;;;;;;;;;;;;;;;9.07;79.66;99258.62;5485614;32;34895;-64
2024/01/06 12:12:09;;;;;;;;;;;;;;;8.71;81.45;99252.63;5497379;32;34818;-70
2024/01/06 12:15:12;;;;;;;;;;;;;;;8.76;81.70;99253.22;5484855;32;34761;-69
2024/01/06 12:18:14;;;;;;;;;;;;;;;8.62;81.48;99248.69;5489944;32;34914;-63
2024/01/06 12:21:17;;;;;;;;;;;;;;;10.02;76.29;99253.63;5490216;32;34321;-70
2024/01/06 12:24:20;;;;;;;;;;;;;;;8.91;77.37;99257.72;5484322;32;35209;-69
2024/01/06 12:27:24;;;;;;;;;;;;;;;8.73;80.02;99249.00;5497774;32;34630;-70
2024/01/06 12:30:27;;;;;;;;;;;;;;;8.74;80.07;99226.28;5468853;32;34211;-70
2024/01/06 12:33:31;;;;;;;;;;;;;;;8.62;83.09;99235.59;5493800;32;34087;-70
2024/01/06 12:36:34;;;;;;;;;;;;;;;8.93;80.23;99224.41;5492548;32;36788;-64
2024/01/06 12:39:36;;;;;;;;;;;;;;;8.30;81.83;99239.72;5467121;32;34379;-69
2024/01/06 12:42:39;;;;;;;;;;;;;;;7.92;83.89;99229.34;5495754;32;34741;-63
2024/01/06 12:45:41;;;;;;;;;;;;;;;8.00;83.59;99227.19;5485015;32;34142;-63
2024/01/06 12:48:43;;;;;;;;;;;;;;;7.94;85.37;99224.03;5491635;32;35505;-64
2024/01/06 12:51:45;;;;;;;;;;;;;;;8.64;83.04;99239.00;5477030;32;34608;-70
2024/01/06 12:54:48;;;;;;;;;;;;;;;8.60;82.81;99259.22;5484251;32;35120;-64
2024/01/06 12:57:50;;;;;;;;;;;;;;;9.21;79.80;99257.97;5472877;32;35594;-63
2024/01/06 13:00:52;;;;;;;;;;;;;;;9.50;77.98;99256.44;5485160;32;34737;-70
2024/01/06 13:03:55;;;;;;;;;;;;;;;9.17;79.79;99249.38;5491240;32;34890;-64
2024/01/06 13:06:57;;;;;;;;;;;;;;;9.69;76.06;99251.91;5492273;32;35081;-70
2024/01/06 13:10:04;;;;;;;;;;;;;;;9.22;76.71;99263.13;5472476;32;35471;-64
2024/01/06 13:13:06;;;;;;;;;;;;;;;8.32;82.29;99261.47;5487314;32;34103;-63
2024/01/06 13:16:09;;;;;;;;;;;;;;;8.78;82.38;99261.87;5491438;32;34754;-63
2024/01/06 13:19:11;;;;;;;;;;;;;;;9.00;79.59;99252.00;5483917;32;34810;-70
2024/01/06 13:22:14;;;;;;;;;;;;;;;8.60;82.60;99259.22;5490315;32;34557;-63
2024/01/06 13:25:17;;;;;;;;;;;;;;;8.30;83.13;99256.28;5485515;32;34497;-65
2024/01/06 13:28:19;;;;;;;;;;;;;;;8.02;85.44;99256.75;5491343;32;34272;-64
2024/01/06 13:31:55;;;;;;;;;;;;;;;8.42;83.19;99257.50;5481951;32;34660;-63
2024/01/06 13:35:11;;;;;;;;;;;;;;;8.16;84.83;99258.72;5445562;32;35071;-70
2024/01/06 13:38:13;;;;;;;;;;;;;;;9.10;80.07;99260.28;5452424;32;34989;-64
2024/01/06 13:41:16;;;;;;;;;;;;;;;8.72;81.22;99256.94;5446015;32;37518;-69
2024/01/06 13:44:18;;;;;;;;;;;;;;;8.14;83.75;99261.41;5453674;32;34574;-64
2024/01/06 13:47:20;;;;;;;;;;;;;;;9.02;80.40;99249.34;5452072;32;34528;-70
2024/01/06 13:50:22;;;;;;;;;;;;;;;8.11;84.26;99250.22;5443178;32;34473;-69
2024/01/06 13:53:25;;;;;;;;;;;;;;;8.27;83.36;99252.97;5451602;32;34852;-69
2024/01/06 13:56:27;;;;;;;;;;;;;;;8.11;85.84;99245.00;5452523;32;33828;-69
2024/01/06 13:59:29;;;;;;;;;;;;;;;8.04;84.51;99235.72;5455188;32;34877;-70
2024/01/06 14:02:32;;;;;;;;;;;;;;;7.78;86.93;99237.78;5453222;32;34510;-64
2024/01/06 14:05:34;;;;;;;;;;;;;;;8.06;86.75;99244.38;5454721;32;34495;-64
2024/01/06 14:08:37;;;;;;;;;;;;;;;7.55;89.84;99241.47;5456375;32;34528;-63
2024/01/06 14:11:39;;;;;;;;;;;;;;;7.82;86.77;99235.91;5451004;32;34757;-71
2024/01/06 14:14:41;;;;;;;;;;;;;;;8.34;87.31;99234.28;5457859;32;35162;-70
2024/01/06 14:17:51;;;;;;;;;;;;;;;8.17;86.16;99226.38;5453921;32;33122;-69
2024/01/06 14:20:55;;;;;;;;;;;;;;;7.79;87.58;99220.31;5453124;32;33856;-64
2024/01/06 14:23:58;;;;;;;;;;;;;;;8.59;85.83;99220.88;5456582;32;35139;-69
2024/01/06 14:27:00;;;;;;;;;;;;;;;8.44;84.31;99228.63;5452532;32;34271;-63
2024/01/06 14:30:03;;;;;;;;;;;;;;;8.34;86.37;99236.91;5441984;32;33994;-71
2024/01/06 14:33:05;;;;;;;;;;;;;;;9.06;83.09;99245.63;5448806;32;34315;-64
2024/01/06 14:36:08;;;;;;;;;;;;;;;8.67;82.65;99247.53;5451647;32;35032;-70
2024/01/06 14:39:10;;;;;;;;;;;;;;;8.70;83.38;99256.19;5489185;32;34868;-71
2024/01/06 14:42:12;;;;;;;;;;;;;;;8.74;83.35;99239.37;5479004;32;34848;-65
2024/01/06 14:45:14;;;;;;;;;;;;;;;8.81;83.70;99240.75;5500356;32;34559;-71
2024/01/06 14:48:16;;;;;;;;;;;;;;;8.65;83.82;99236.28;5493513;32;34695;-70
2024/01/06 14:51:19;;;;;;;;;;;;;;;9.56;81.11;99236.91;5497459;32;34648;-69
2024/01/06 14:54:21;;;;;;;;;;;;;;;9.10;80.24;99250.62;5493194;32;34840;-69
2024/01/06 14:57:23;;;;;;;;;;;;;;;9.57;79.38;99247.31;5495646;32;35511;-64
2024/01/06 15:00:26;;;;;;;;;;;;;;;9.01;82.87;99256.31;5486149;32;34869;-64
2024/01/06 15:03:32;;;;;;;;;;;;;;;9.35;81.87;99254.63;5494977;32;35211;-69
2024/01/06 15:06:49;;;;;;;;;;;;;;;9.23;80.98;99248.22;5482845;32;35773;-71
2024/01/06 15:09:51;;;;;;;;;;;;;;;8.36;86.21;99244.72;5491350;32;34350;-71
2024/01/06 15:12:53;;;;;;;;;;;;;;;8.63;82.45;99242.50;5486238;32;34745;-65
2024/01/06 15:15:56;;;;;;;;;;;;;;;8.57;83.56;99232.38;5492832;32;35277;-71
2024/01/06 15:19:00;;;;;;;;;;;;;;;8.47;84.61;99231.94;5493642;32;34231;-70
2024/01/06 15:22:02;;;;;;;;;;;;;;;8.44;84.73;99226.88;5485493;32;35994;-64
2024/01/06 15:25:06;;;;;;;;;;;;;;;8.56;84.36;99223.63;5493752;32;35266;-63
2024/01/06 15:28:10;;;;;;;;;;;;;;;8.89;84.18;99228.16;5490725;32;34770;-63
2024/01/06 15:31:12;;;;;;;;;;;;;;;8.15;86.36;99223.84;5492622;32;34966;-70
2024/01/06 15:34:15;;;;;;;;;;;;;;;8.13;86.87;99230.94;5493395;32;34470;-63
2024/01/06 15:37:17;;;;;;;;;;;;;;;8.58;86.12;99221.81;5494895;32;33839;-62
2024/01/06 15:40:19;;;;;;;;;;;;;;;8.66;84.72;99224.88;5477603;32;35133;-69
2024/01/06 15:43:22;;;;;;;;;;;;;;;9.17;82.61;99215.31;5488785;32;35223;-70
2024/01/06 15:46:24;;;;;;;;;;;;;;;8.65;87.07;99215.34;5492482;32;34293;-63
2024/01/06 15:49:27;;;;;;;;;;;;;;;9.37;82.87;99214.25;5482260;32;34280;-69
2024/01/06 15:52:29;;;;;;;;;;;;;;;9.74;80.58;99207.91;5495095;32;36371;-71
2024/01/06 15:55:32;;;;;;;;;;;;;;;9.29;82.47;99215.59;5493271;32;34304;-64
2024/01/06 15:58:34;;;;;;;;;;;;;;;9.10;82.74;99220.94;5501445;32;34749;-64
2024/01/06 16:01:36;;;;;;;;;;;;;;;9.44;81.97;99210.38;5477501;32;35212;-71
2024/01/06 16:04:38;;;;;;;;;;;;;;;9.65;80.40;99205.75;5497126;32;35122;-70
2024/01/06 16:07:41;;;;;;;;;;;;;;;8.94;81.94;99205.16;5494135;32;34870;-70